sensor_id;sensor_type;location;lat;lon;timestamp;P1;durP1;ratioP1;P2;durP2;ratioP2
34767;SDS011;21755;43.608;1.236;2022-08-24T00:01:01;1.30;;;0.60;;
34767;SDS011;21755;43.608;1.236;2022-08-24T00:03:28;4.13;;;0.60;;
34767;SDS011;21755;43.608;1.236;2022-08-24T00:05:54;0.85;;;0.65;;
34767;SDS011;21755;43.608;1.236;2022-08-24T00:08:20;2.90;;;0.60;;
34767;SDS011;21755;43.608;1.236;2022-08-24T00:10:46;0.65;;;0.50;;
34767;SDS011;21755;43.608;1.236;2022-08-24T00:13:12;1.70;;;0.80;;
34767;SDS011;21755;43.608;1.236;2022-08-24T00:15:39;0.88;;;0.75;;
34767;SDS011;21755;43.608;1.236;2022-08-24T00:18:05;0.85;;;0.70;;
34767;SDS011;21755;43.608;1.236;2022-08-24T00:20:31;0.70;;;0.70;;
34767;SDS011;21755;43.608;1.236;2022-08-24T00:22:57;2.10;;;0.80;;
34767;SDS011;21755;43.608;1.236;2022-08-24T00:25:23;1.25;;;0.55;;
34767;SDS011;21755;43.608;1.236;2022-08-24T00:27:49;2.20;;;0.98;;
34767;SDS011;21755;43.608;1.236;2022-08-24T00:30:17;3.30;;;0.80;;
34767;SDS011;21755;43.608;1.236;2022-08-24T00:32:44;1.10;;;0.82;;
34767;SDS011;21755;43.608;1.236;2022-08-24T00:35:12;1.67;;;0.82;;
34767;SDS011;21755;43.608;1.236;2022-08-24T00:37:38;1.77;;;0.60;;
34767;SDS011;21755;43.608;1.236;2022-08-24T00:40:07;4.18;;;0.47;;
34767;SDS011;21755;43.608;1.236;2022-08-24T00:42:36;3.80;;;0.70;;
34767;SDS011;21755;43.608;1.236;2022-08-24T00:45:03;0.60;;;0.50;;
34767;SDS011;21755;43.608;1.236;2022-08-24T00:47:33;5.72;;;0.90;;
34767;SDS011;21755;43.608;1.236;2022-08-24T00:50:06;0.88;;;0.70;;
34767;SDS011;21755;43.608;1.236;2022-08-24T00:52:40;1.00;;;0.63;;
34767;SDS011;21755;43.608;1.236;2022-08-24T00:55:18;3.85;;;0.73;;
34767;SDS011;21755;43.608;1.236;2022-08-24T00:57:48;1.05;;;0.60;;
34767;SDS011;21755;43.608;1.236;2022-08-24T01:00:24;0.50;;;0.50;;
34767;SDS011;21755;43.608;1.236;2022-08-24T01:02:56;1.05;;;0.50;;
34767;SDS011;21755;43.608;1.236;2022-08-24T01:05:29;0.73;;;0.73;;
34767;SDS011;21755;43.608;1.236;2022-08-24T01:07:56;2.75;;;0.70;;
34767;SDS011;21755;43.608;1.236;2022-08-24T01:10:24;1.30;;;0.52;;
34767;SDS011;21755;43.608;1.236;2022-08-24T01:12:53;2.63;;;0.68;;
34767;SDS011;21755;43.608;1.236;2022-08-24T01:15:22;0.60;;;0.60;;
34767;SDS011;21755;43.608;1.236;2022-08-24T01:17:48;3.13;;;0.55;;
34767;SDS011;21755;43.608;1.236;2022-08-24T01:20:42;0.90;;;0.63;;
34767;SDS011;21755;43.608;1.236;2022-08-24T01:26:19;2.08;;;0.90;;
34767;SDS011;21755;43.608;1.236;2022-08-24T01:29:07;0.65;;;0.65;;
34767;SDS011;21755;43.608;1.236;2022-08-24T01:31:36;2.45;;;0.70;;
34767;SDS011;21755;43.608;1.236;2022-08-24T01:34:03;2.25;;;0.63;;
34767;SDS011;21755;43.608;1.236;2022-08-24T01:36:31;5.05;;;0.68;;
34767;SDS011;21755;43.608;1.236;2022-08-24T01:39:09;0.70;;;0.70;;
34767;SDS011;21755;43.608;1.236;2022-08-24T01:41:38;0.93;;;0.35;;
34767;SDS011;21755;43.608;1.236;2022-08-24T01:44:04;4.13;;;0.82;;
34767;SDS011;21755;43.608;1.236;2022-08-24T01:46:30;1.13;;;0.70;;
34767;SDS011;21755;43.608;1.236;2022-08-24T01:48:56;0.60;;;0.60;;
34767;SDS011;21755;43.608;1.236;2022-08-24T01:51:24;4.60;;;1.10;;
34767;SDS011;21755;43.608;1.236;2022-08-24T01:53:54;3.17;;;0.50;;
34767;SDS011;21755;43.608;1.236;2022-08-24T01:56:20;0.85;;;0.70;;
34767;SDS011;21755;43.608;1.236;2022-08-24T01:58:46;4.25;;;0.77;;
34767;SDS011;21755;43.608;1.236;2022-08-24T02:01:14;0.80;;;0.75;;
34767;SDS011;21755;43.608;1.236;2022-08-24T02:03:44;1.20;;;0.70;;
34767;SDS011;21755;43.608;1.236;2022-08-24T02:06:10;1.73;;;0.50;;
34767;SDS011;21755;43.608;1.236;2022-08-24T02:08:36;1.75;;;0.80;;
34767;SDS011;21755;43.608;1.236;2022-08-24T02:11:06;1.13;;;0.60;;
34767;SDS011;21755;43.608;1.236;2022-08-24T02:13:35;1.05;;;0.80;;
34767;SDS011;21755;43.608;1.236;2022-08-24T02:16:03;0.75;;;0.75;;
34767;SDS011;21755;43.608;1.236;2022-08-24T02:18:31;2.67;;;0.75;;
34767;SDS011;21755;43.608;1.236;2022-08-24T02:20:59;0.75;;;0.65;;
34767;SDS011;21755;43.608;1.236;2022-08-24T02:23:25;5.88;;;0.90;;
34767;SDS011;21755;43.608;1.236;2022-08-24T02:25:53;1.60;;;0.73;;
34767;SDS011;21755;43.608;1.236;2022-08-24T02:28:20;0.98;;;0.77;;
34767;SDS011;21755;43.608;1.236;2022-08-24T02:30:46;3.13;;;1.02;;
34767;SDS011;21755;43.608;1.236;2022-08-24T02:33:13;2.30;;;0.85;;
34767;SDS011;21755;43.608;1.236;2022-08-24T02:35:40;2.10;;;0.60;;
34767;SDS011;21755;43.608;1.236;2022-08-24T02:38:06;0.70;;;0.70;;
34767;SDS011;21755;43.608;1.236;2022-08-24T02:40:34;0.90;;;0.82;;
34767;SDS011;21755;43.608;1.236;2022-08-24T02:43:00;0.60;;;0.60;;
34767;SDS011;21755;43.608;1.236;2022-08-24T02:45:26;2.38;;;0.63;;
34767;SDS011;21755;43.608;1.236;2022-08-24T02:47:52;0.65;;;0.60;;
34767;SDS011;21755;43.608;1.236;2022-08-24T02:50:19;2.97;;;0.80;;
34767;SDS011;21755;43.608;1.236;2022-08-24T02:52:45;0.57;;;0.57;;
34767;SDS011;21755;43.608;1.236;2022-08-24T02:55:12;2.17;;;0.82;;
34767;SDS011;21755;43.608;1.236;2022-08-24T02:57:40;3.95;;;0.88;;
34767;SDS011;21755;43.608;1.236;2022-08-24T03:00:09;0.70;;;0.57;;
34767;SDS011;21755;43.608;1.236;2022-08-24T03:02:37;0.50;;;0.50;;
34767;SDS011;21755;43.608;1.236;2022-08-24T03:05:04;1.10;;;0.77;;
34767;SDS011;21755;43.608;1.236;2022-08-24T03:07:31;4.57;;;0.90;;
34767;SDS011;21755;43.608;1.236;2022-08-24T03:09:57;0.57;;;0.57;;
34767;SDS011;21755;43.608;1.236;2022-08-24T03:12:23;3.35;;;0.80;;
34767;SDS011;21755;43.608;1.236;2022-08-24T03:14:49;2.65;;;0.88;;
34767;SDS011;21755;43.608;1.236;2022-08-24T03:17:15;4.30;;;0.60;;
34767;SDS011;21755;43.608;1.236;2022-08-24T03:19:41;1.23;;;0.80;;
34767;SDS011;21755;43.608;1.236;2022-08-24T03:22:07;1.60;;;0.65;;
34767;SDS011;21755;43.608;1.236;2022-08-24T03:24:33;1.25;;;0.68;;
34767;SDS011;21755;43.608;1.236;2022-08-24T03:26:59;2.35;;;0.80;;
34767;SDS011;21755;43.608;1.236;2022-08-24T03:29:25;2.22;;;0.88;;
34767;SDS011;21755;43.608;1.236;2022-08-24T03:31:52;2.13;;;0.70;;
34767;SDS011;21755;43.608;1.236;2022-08-24T03:34:18;2.67;;;0.68;;
34767;SDS011;21755;43.608;1.236;2022-08-24T03:36:44;2.00;;;0.82;;
34767;SDS011;21755;43.608;1.236;2022-08-24T03:39:11;1.40;;;0.60;;
34767;SDS011;21755;43.608;1.236;2022-08-24T03:41:38;1.55;;;0.73;;
34767;SDS011;21755;43.608;1.236;2022-08-24T03:44:04;2.13;;;0.80;;
34767;SDS011;21755;43.608;1.236;2022-08-24T03:46:32;2.05;;;0.50;;
34767;SDS011;21755;43.608;1.236;2022-08-24T03:49:01;1.38;;;0.80;;
34767;SDS011;21755;43.608;1.236;2022-08-24T03:51:29;5.32;;;0.93;;
34767;SDS011;21755;43.608;1.236;2022-08-24T03:53:56;2.88;;;0.80;;
34767;SDS011;21755;43.608;1.236;2022-08-24T03:56:23;2.17;;;0.65;;
34767;SDS011;21755;43.608;1.236;2022-08-24T03:58:50;1.17;;;0.95;;
34767;SDS011;21755;43.608;1.236;2022-08-24T04:01:16;2.35;;;0.80;;
34767;SDS011;21755;43.608;1.236;2022-08-24T04:03:43;0.60;;;0.60;;
34767;SDS011;21755;43.608;1.236;2022-08-24T04:06:11;1.80;;;0.80;;
34767;SDS011;21755;43.608;1.236;2022-08-24T04:08:38;1.13;;;0.60;;
34767;SDS011;21755;43.608;1.236;2022-08-24T04:11:08;0.90;;;0.63;;
34767;SDS011;21755;43.608;1.236;2022-08-24T04:13:37;2.08;;;0.47;;
34767;SDS011;21755;43.608;1.236;2022-08-24T04:16:05;1.88;;;0.73;;
34767;SDS011;21755;43.608;1.236;2022-08-24T04:18:36;2.72;;;0.68;;
34767;SDS011;21755;43.608;1.236;2022-08-24T04:21:02;2.97;;;0.60;;
34767;SDS011;21755;43.608;1.236;2022-08-24T04:23:29;1.20;;;0.65;;
34767;SDS011;21755;43.608;1.236;2022-08-24T04:25:55;0.50;;;0.50;;
34767;SDS011;21755;43.608;1.236;2022-08-24T04:28:28;0.70;;;0.70;;
34767;SDS011;21755;43.608;1.236;2022-08-24T04:30:54;1.25;;;0.90;;
34767;SDS011;21755;43.608;1.236;2022-08-24T04:33:21;0.70;;;0.70;;
34767;SDS011;21755;43.608;1.236;2022-08-24T04:35:47;1.48;;;0.95;;
34767;SDS011;21755;43.608;1.236;2022-08-24T04:38:14;0.75;;;0.57;;
34767;SDS011;21755;43.608;1.236;2022-08-24T04:40:42;0.50;;;0.50;;
34767;SDS011;21755;43.608;1.236;2022-08-24T04:43:10;8.13;;;1.42;;
34767;SDS011;21755;43.608;1.236;2022-08-24T04:45:39;0.88;;;0.77;;
34767;SDS011;21755;43.608;1.236;2022-08-24T04:48:06;3.35;;;0.60;;
34767;SDS011;21755;43.608;1.236;2022-08-24T04:50:33;1.17;;;1.08;;
34767;SDS011;21755;43.608;1.236;2022-08-24T04:53:03;1.73;;;0.80;;
34767;SDS011;21755;43.608;1.236;2022-08-24T04:55:30;2.80;;;0.80;;
34767;SDS011;21755;43.608;1.236;2022-08-24T04:57:57;1.88;;;0.60;;
34767;SDS011;21755;43.608;1.236;2022-08-24T05:00:23;2.15;;;0.70;;
34767;SDS011;21755;43.608;1.236;2022-08-24T05:02:49;0.63;;;0.63;;
34767;SDS011;21755;43.608;1.236;2022-08-24T05:05:15;3.17;;;1.00;;
34767;SDS011;21755;43.608;1.236;2022-08-24T05:07:41;4.38;;;1.10;;
34767;SDS011;21755;43.608;1.236;2022-08-24T05:10:09;0.52;;;0.52;;
34767;SDS011;21755;43.608;1.236;2022-08-24T05:12:36;2.40;;;0.65;;
34767;SDS011;21755;43.608;1.236;2022-08-24T05:15:02;3.50;;;0.70;;
34767;SDS011;21755;43.608;1.236;2022-08-24T05:17:29;2.17;;;0.60;;
34767;SDS011;21755;43.608;1.236;2022-08-24T05:19:55;4.43;;;0.70;;
34767;SDS011;21755;43.608;1.236;2022-08-24T05:22:22;1.40;;;0.63;;
34767;SDS011;21755;43.608;1.236;2022-08-24T05:24:49;3.88;;;0.80;;
34767;SDS011;21755;43.608;1.236;2022-08-24T05:27:15;6.13;;;0.57;;
34767;SDS011;21755;43.608;1.236;2022-08-24T05:29:42;0.50;;;0.50;;
34767;SDS011;21755;43.608;1.236;2022-08-24T05:32:11;2.25;;;0.50;;
34767;SDS011;21755;43.608;1.236;2022-08-24T05:34:37;5.20;;;0.80;;
34767;SDS011;21755;43.608;1.236;2022-08-24T05:37:03;1.05;;;0.60;;
34767;SDS011;21755;43.608;1.236;2022-08-24T05:39:29;2.53;;;0.60;;
34767;SDS011;21755;43.608;1.236;2022-08-24T05:41:55;1.65;;;0.68;;
34767;SDS011;21755;43.608;1.236;2022-08-24T05:44:24;0.60;;;0.50;;
34767;SDS011;21755;43.608;1.236;2022-08-24T05:46:51;1.88;;;0.50;;
34767;SDS011;21755;43.608;1.236;2022-08-24T05:49:18;1.20;;;0.73;;
34767;SDS011;21755;43.608;1.236;2022-08-24T05:51:44;0.85;;;0.60;;
34767;SDS011;21755;43.608;1.236;2022-08-24T05:54:10;0.40;;;0.40;;
34767;SDS011;21755;43.608;1.236;2022-08-24T05:56:37;0.82;;;0.65;;
34767;SDS011;21755;43.608;1.236;2022-08-24T05:59:04;3.10;;;0.70;;
34767;SDS011;21755;43.608;1.236;2022-08-24T06:01:30;2.20;;;0.90;;
34767;SDS011;21755;43.608;1.236;2022-08-24T06:03:57;2.13;;;0.70;;
34767;SDS011;21755;43.608;1.236;2022-08-24T06:06:24;12.68;;;4.75;;
34767;SDS011;21755;43.608;1.236;2022-08-24T06:08:53;10.75;;;3.83;;
34767;SDS011;21755;43.608;1.236;2022-08-24T06:11:25;6.05;;;2.55;;
34767;SDS011;21755;43.608;1.236;2022-08-24T06:13:58;6.28;;;2.33;;
34767;SDS011;21755;43.608;1.236;2022-08-24T06:16:29;7.07;;;3.28;;
34767;SDS011;21755;43.608;1.236;2022-08-24T06:18:58;6.63;;;3.42;;
34767;SDS011;21755;43.608;1.236;2022-08-24T06:21:24;11.07;;;4.45;;
34767;SDS011;21755;43.608;1.236;2022-08-24T06:23:55;10.80;;;3.47;;
34767;SDS011;21755;43.608;1.236;2022-08-24T06:26:22;8.10;;;3.83;;
34767;SDS011;21755;43.608;1.236;2022-08-24T06:29:07;8.65;;;3.08;;
34767;SDS011;21755;43.608;1.236;2022-08-24T06:31:39;8.35;;;2.88;;
34767;SDS011;21755;43.608;1.236;2022-08-24T06:34:10;8.77;;;2.55;;
34767;SDS011;21755;43.608;1.236;2022-08-24T06:36:37;5.18;;;2.15;;
34767;SDS011;21755;43.608;1.236;2022-08-24T06:39:04;5.03;;;1.80;;
34767;SDS011;21755;43.608;1.236;2022-08-24T06:41:30;1.92;;;1.50;;
34767;SDS011;21755;43.608;1.236;2022-08-24T06:43:56;3.22;;;1.73;;
34767;SDS011;21755;43.608;1.236;2022-08-24T06:46:23;4.60;;;1.77;;
34767;SDS011;21755;43.608;1.236;2022-08-24T06:48:49;2.58;;;1.23;;
34767;SDS011;21755;43.608;1.236;2022-08-24T06:51:16;5.07;;;1.25;;
34767;SDS011;21755;43.608;1.236;2022-08-24T06:53:43;1.83;;;1.17;;
34767;SDS011;21755;43.608;1.236;2022-08-24T06:56:10;3.30;;;1.65;;
34767;SDS011;21755;43.608;1.236;2022-08-24T06:58:36;2.85;;;1.08;;
34767;SDS011;21755;43.608;1.236;2022-08-24T07:01:13;5.18;;;1.33;;
34767;SDS011;21755;43.608;1.236;2022-08-24T07:03:41;2.20;;;1.00;;
34767;SDS011;21755;43.608;1.236;2022-08-24T07:06:08;7.05;;;1.33;;
34767;SDS011;21755;43.608;1.236;2022-08-24T07:08:36;2.50;;;1.00;;
34767;SDS011;21755;43.608;1.236;2022-08-24T07:11:03;1.83;;;0.98;;
34767;SDS011;21755;43.608;1.236;2022-08-24T07:13:30;2.90;;;1.00;;
34767;SDS011;21755;43.608;1.236;2022-08-24T07:15:57;5.80;;;1.48;;
34767;SDS011;21755;43.608;1.236;2022-08-24T07:18:23;2.13;;;0.93;;
34767;SDS011;21755;43.608;1.236;2022-08-24T07:20:50;2.03;;;1.00;;
34767;SDS011;21755;43.608;1.236;2022-08-24T07:23:16;2.17;;;1.08;;
34767;SDS011;21755;43.608;1.236;2022-08-24T07:25:43;5.18;;;1.45;;
34767;SDS011;21755;43.608;1.236;2022-08-24T07:28:10;2.70;;;0.93;;
34767;SDS011;21755;43.608;1.236;2022-08-24T07:30:37;2.20;;;1.00;;
34767;SDS011;21755;43.608;1.236;2022-08-24T07:33:03;2.85;;;1.60;;
34767;SDS011;21755;43.608;1.236;2022-08-24T07:35:29;2.38;;;1.00;;
34767;SDS011;21755;43.608;1.236;2022-08-24T07:37:57;3.72;;;1.08;;
34767;SDS011;21755;43.608;1.236;2022-08-24T07:40:24;3.35;;;1.30;;
34767;SDS011;21755;43.608;1.236;2022-08-24T07:42:52;2.10;;;0.98;;
34767;SDS011;21755;43.608;1.236;2022-08-24T07:45:20;2.83;;;0.80;;
34767;SDS011;21755;43.608;1.236;2022-08-24T07:47:47;1.63;;;0.98;;
34767;SDS011;21755;43.608;1.236;2022-08-24T07:50:14;6.85;;;1.05;;
34767;SDS011;21755;43.608;1.236;2022-08-24T07:52:41;2.58;;;0.77;;
34767;SDS011;21755;43.608;1.236;2022-08-24T07:55:09;3.13;;;0.90;;
34767;SDS011;21755;43.608;1.236;2022-08-24T07:57:36;4.75;;;1.10;;
34767;SDS011;21755;43.608;1.236;2022-08-24T08:00:04;3.10;;;0.93;;
34767;SDS011;21755;43.608;1.236;2022-08-24T08:02:32;6.25;;;0.80;;
34767;SDS011;21755;43.608;1.236;2022-08-24T08:04:58;13.27;;;0.80;;
34767;SDS011;21755;43.608;1.236;2022-08-24T08:07:24;3.47;;;1.10;;
34767;SDS011;21755;43.608;1.236;2022-08-24T08:09:50;5.05;;;1.10;;
34767;SDS011;21755;43.608;1.236;2022-08-24T08:12:17;1.85;;;0.90;;
34767;SDS011;21755;43.608;1.236;2022-08-24T08:14:43;1.10;;;1.00;;
34767;SDS011;21755;43.608;1.236;2022-08-24T08:17:10;2.88;;;1.30;;
34767;SDS011;21755;43.608;1.236;2022-08-24T08:19:38;2.72;;;0.90;;
34767;SDS011;21755;43.608;1.236;2022-08-24T08:22:07;3.63;;;0.82;;
34767;SDS011;21755;43.608;1.236;2022-08-24T08:24:51;1.17;;;1.08;;
34767;SDS011;21755;43.608;1.236;2022-08-24T08:27:17;2.75;;;0.82;;
34767;SDS011;21755;43.608;1.236;2022-08-24T08:29:45;3.42;;;1.08;;
34767;SDS011;21755;43.608;1.236;2022-08-24T08:32:11;2.38;;;1.33;;
34767;SDS011;21755;43.608;1.236;2022-08-24T08:34:42;2.25;;;1.00;;
34767;SDS011;21755;43.608;1.236;2022-08-24T08:37:09;1.90;;;0.90;;
34767;SDS011;21755;43.608;1.236;2022-08-24T08:39:35;2.13;;;0.80;;
34767;SDS011;21755;43.608;1.236;2022-08-24T08:55:58;3.72;;;1.00;;
34767;SDS011;21755;43.608;1.236;2022-08-24T09:25:56;2.15;;;1.25;;
34767;SDS011;21755;43.608;1.236;2022-08-24T09:36:46;2.38;;;0.98;;
34767;SDS011;21755;43.608;1.236;2022-08-24T10:01:42;4.82;;;1.33;;
34767;SDS011;21755;43.608;1.236;2022-08-24T10:04:40;8.25;;;1.38;;
34767;SDS011;21755;43.608;1.236;2022-08-24T10:19:17;1.83;;;1.40;;
34767;SDS011;21755;43.608;1.236;2022-08-24T10:31:12;5.65;;;1.40;;
34767;SDS011;21755;43.608;1.236;2022-08-24T10:33:57;2.95;;;1.20;;
34767;SDS011;21755;43.608;1.236;2022-08-24T10:45:30;3.70;;;1.42;;
34767;SDS011;21755;43.608;1.236;2022-08-24T10:53:45;1.80;;;1.02;;
34767;SDS011;21755;43.608;1.236;2022-08-24T10:56:29;3.30;;;1.35;;
34767;SDS011;21755;43.608;1.236;2022-08-24T10:58:57;5.45;;;1.25;;
34767;SDS011;21755;43.608;1.236;2022-08-24T11:01:35;4.82;;;1.00;;
34767;SDS011;21755;43.608;1.236;2022-08-24T11:04:06;0.85;;;0.80;;
34767;SDS011;21755;43.608;1.236;2022-08-24T11:06:41;3.67;;;0.98;;
34767;SDS011;21755;43.608;1.236;2022-08-24T11:11:38;3.20;;;1.00;;
34767;SDS011;21755;43.608;1.236;2022-08-24T11:16:50;0.80;;;0.70;;
34767;SDS011;21755;43.608;1.236;2022-08-24T11:21:52;0.82;;;0.82;;
34767;SDS011;21755;43.608;1.236;2022-08-24T11:27:07;3.30;;;0.80;;
34767;SDS011;21755;43.608;1.236;2022-08-24T11:34:50;2.50;;;1.00;;
34767;SDS011;21755;43.608;1.236;2022-08-24T11:37:18;2.22;;;1.05;;
34767;SDS011;21755;43.608;1.236;2022-08-24T11:39:48;0.80;;;0.80;;
34767;SDS011;21755;43.608;1.236;2022-08-24T11:42:21;1.73;;;0.95;;
34767;SDS011;21755;43.608;1.236;2022-08-24T11:45:15;0.90;;;0.90;;
34767;SDS011;21755;43.608;1.236;2022-08-24T11:50:39;1.05;;;1.05;;
34767;SDS011;21755;43.608;1.236;2022-08-24T11:59:19;1.08;;;1.08;;
34767;SDS011;21755;43.608;1.236;2022-08-24T12:01:58;3.55;;;1.15;;
34767;SDS011;21755;43.608;1.236;2022-08-24T12:07:19;0.90;;;0.90;;
34767;SDS011;21755;43.608;1.236;2022-08-24T12:13:05;1.10;;;1.10;;
34767;SDS011;21755;43.608;1.236;2022-08-24T12:16:02;2.67;;;1.00;;
34767;SDS011;21755;43.608;1.236;2022-08-24T12:21:27;1.85;;;1.30;;
34767;SDS011;21755;43.608;1.236;2022-08-24T12:26:41;1.10;;;1.00;;
34767;SDS011;21755;43.608;1.236;2022-08-24T12:29:14;1.30;;;1.10;;
34767;SDS011;21755;43.608;1.236;2022-08-24T12:34:56;1.10;;;1.10;;
34767;SDS011;21755;43.608;1.236;2022-08-24T12:37:57;0.95;;;0.93;;
34767;SDS011;21755;43.608;1.236;2022-08-24T12:40:43;4.05;;;1.13;;
34767;SDS011;21755;43.608;1.236;2022-08-24T12:45:49;1.85;;;1.20;;
34767;SDS011;21755;43.608;1.236;2022-08-24T12:53:53;3.30;;;1.60;;
34767;SDS011;21755;43.608;1.236;2022-08-24T13:01:59;1.35;;;1.27;;
34767;SDS011;21755;43.608;1.236;2022-08-24T13:07:38;3.78;;;1.10;;
34767;SDS011;21755;43.608;1.236;2022-08-24T13:10:13;4.32;;;1.48;;
34767;SDS011;21755;43.608;1.236;2022-08-24T13:17:51;1.17;;;1.17;;
34767;SDS011;21755;43.608;1.236;2022-08-24T13:20:26;5.03;;;1.42;;
34767;SDS011;21755;43.608;1.236;2022-08-24T13:47:27;1.33;;;1.20;;
34767;SDS011;21755;43.608;1.236;2022-08-24T13:50:30;2.30;;;1.48;;
34767;SDS011;21755;43.608;1.236;2022-08-24T13:58:54;4.43;;;1.20;;
34767;SDS011;21755;43.608;1.236;2022-08-24T14:06:59;2.30;;;1.30;;
34767;SDS011;21755;43.608;1.236;2022-08-24T14:09:37;2.65;;;1.20;;
34767;SDS011;21755;43.608;1.236;2022-08-24T14:20:32;1.40;;;1.30;;
34767;SDS011;21755;43.608;1.236;2022-08-24T14:34:41;2.72;;;1.42;;
34767;SDS011;21755;43.608;1.236;2022-08-24T14:37:19;1.80;;;1.50;;
34767;SDS011;21755;43.608;1.236;2022-08-24T14:40:14;1.85;;;1.60;;
34767;SDS011;21755;43.608;1.236;2022-08-24T14:48:19;2.80;;;1.48;;
34767;SDS011;21755;43.608;1.236;2022-08-24T14:53:47;2.72;;;1.00;;
34767;SDS011;21755;43.608;1.236;2022-08-24T15:02:32;1.83;;;1.20;;
34767;SDS011;21755;43.608;1.236;2022-08-24T15:05:12;2.20;;;1.65;;
34767;SDS011;21755;43.608;1.236;2022-08-24T15:07:58;1.27;;;1.17;;
34767;SDS011;21755;43.608;1.236;2022-08-24T15:11:13;1.35;;;1.20;;
34767;SDS011;21755;43.608;1.236;2022-08-24T15:13:43;1.13;;;1.13;;
34767;SDS011;21755;43.608;1.236;2022-08-24T15:16:19;4.15;;;1.23;;
34767;SDS011;21755;43.608;1.236;2022-08-24T15:24:16;1.27;;;1.20;;
34767;SDS011;21755;43.608;1.236;2022-08-24T15:26:56;2.92;;;1.20;;
34767;SDS011;21755;43.608;1.236;2022-08-24T15:29:24;1.33;;;1.20;;
34767;SDS011;21755;43.608;1.236;2022-08-24T15:34:41;1.52;;;1.08;;
34767;SDS011;21755;43.608;1.236;2022-08-24T15:37:10;1.10;;;1.10;;
34767;SDS011;21755;43.608;1.236;2022-08-24T15:39:40;2.13;;;1.23;;
34767;SDS011;21755;43.608;1.236;2022-08-24T15:42:08;1.10;;;1.10;;
34767;SDS011;21755;43.608;1.236;2022-08-24T15:44:39;2.05;;;1.23;;
34767;SDS011;21755;43.608;1.236;2022-08-24T15:47:17;1.20;;;1.10;;
34767;SDS011;21755;43.608;1.236;2022-08-24T15:50:09;1.50;;;1.40;;
34767;SDS011;21755;43.608;1.236;2022-08-24T15:52:48;1.13;;;1.02;;
34767;SDS011;21755;43.608;1.236;2022-08-24T15:55:46;1.13;;;1.13;;
34767;SDS011;21755;43.608;1.236;2022-08-24T16:03:53;1.70;;;1.15;;
34767;SDS011;21755;43.608;1.236;2022-08-24T16:09:09;0.90;;;0.90;;
34767;SDS011;21755;43.608;1.236;2022-08-24T16:11:42;3.58;;;1.13;;
34767;SDS011;21755;43.608;1.236;2022-08-24T16:14:23;1.27;;;1.20;;
34767;SDS011;21755;43.608;1.236;2022-08-24T16:19:53;0.93;;;0.93;;
34767;SDS011;21755;43.608;1.236;2022-08-24T16:22:26;1.65;;;1.30;;
34767;SDS011;21755;43.608;1.236;2022-08-24T16:27:56;1.08;;;0.98;;
34767;SDS011;21755;43.608;1.236;2022-08-24T16:36:17;1.00;;;1.00;;
34767;SDS011;21755;43.608;1.236;2022-08-24T16:38:46;1.23;;;1.13;;
34767;SDS011;21755;43.608;1.236;2022-08-24T16:41:14;0.80;;;0.80;;
34767;SDS011;21755;43.608;1.236;2022-08-24T16:43:42;1.13;;;1.13;;
34767;SDS011;21755;43.608;1.236;2022-08-24T16:46:10;1.00;;;1.00;;
34767;SDS011;21755;43.608;1.236;2022-08-24T16:48:37;1.15;;;1.13;;
34767;SDS011;21755;43.608;1.236;2022-08-24T16:51:04;1.15;;;1.15;;
34767;SDS011;21755;43.608;1.236;2022-08-24T16:53:30;1.20;;;1.10;;
34767;SDS011;21755;43.608;1.236;2022-08-24T16:55:57;1.95;;;1.00;;
34767;SDS011;21755;43.608;1.236;2022-08-24T16:58:25;1.15;;;1.05;;
34767;SDS011;21755;43.608;1.236;2022-08-24T17:00:54;0.95;;;0.93;;
34767;SDS011;21755;43.608;1.236;2022-08-24T17:03:20;1.33;;;1.10;;
34767;SDS011;21755;43.608;1.236;2022-08-24T17:05:46;3.20;;;1.30;;
34767;SDS011;21755;43.608;1.236;2022-08-24T17:08:12;2.67;;;1.02;;
34767;SDS011;21755;43.608;1.236;2022-08-24T17:10:38;3.70;;;1.05;;
34767;SDS011;21755;43.608;1.236;2022-08-24T17:13:04;0.77;;;0.77;;
34767;SDS011;21755;43.608;1.236;2022-08-24T17:15:30;2.40;;;1.10;;
34767;SDS011;21755;43.608;1.236;2022-08-24T17:18:01;3.97;;;1.33;;
34767;SDS011;21755;43.608;1.236;2022-08-24T17:20:29;1.25;;;0.82;;
34767;SDS011;21755;43.608;1.236;2022-08-24T17:22:56;2.15;;;0.90;;
34767;SDS011;21755;43.608;1.236;2022-08-24T17:25:23;1.45;;;0.73;;
34767;SDS011;21755;43.608;1.236;2022-08-24T17:27:50;1.23;;;0.73;;
34767;SDS011;21755;43.608;1.236;2022-08-24T17:30:18;1.20;;;1.10;;
34767;SDS011;21755;43.608;1.236;2022-08-24T17:32:47;1.10;;;1.00;;
34767;SDS011;21755;43.608;1.236;2022-08-24T17:35:14;0.98;;;0.93;;
34767;SDS011;21755;43.608;1.236;2022-08-24T17:37:40;2.88;;;1.00;;
34767;SDS011;21755;43.608;1.236;2022-08-24T17:40:10;0.90;;;0.90;;
34767;SDS011;21755;43.608;1.236;2022-08-24T17:42:38;1.27;;;0.87;;
34767;SDS011;21755;43.608;1.236;2022-08-24T17:45:05;1.17;;;1.05;;
34767;SDS011;21755;43.608;1.236;2022-08-24T17:47:31;0.85;;;0.85;;
34767;SDS011;21755;43.608;1.236;2022-08-24T17:49:58;0.90;;;0.90;;
34767;SDS011;21755;43.608;1.236;2022-08-24T17:52:25;1.10;;;1.00;;
34767;SDS011;21755;43.608;1.236;2022-08-24T17:54:51;0.75;;;0.75;;
34767;SDS011;21755;43.608;1.236;2022-08-24T17:57:17;0.90;;;0.90;;
34767;SDS011;21755;43.608;1.236;2022-08-24T17:59:47;2.78;;;1.00;;
34767;SDS011;21755;43.608;1.236;2022-08-24T18:02:14;3.92;;;1.58;;
34767;SDS011;21755;43.608;1.236;2022-08-24T18:04:41;7.03;;;3.53;;
34767;SDS011;21755;43.608;1.236;2022-08-24T18:07:11;6.78;;;2.90;;
34767;SDS011;21755;43.608;1.236;2022-08-24T18:09:43;4.10;;;1.73;;
34767;SDS011;21755;43.608;1.236;2022-08-24T18:12:12;9.73;;;2.47;;
34767;SDS011;21755;43.608;1.236;2022-08-24T18:14:39;2.40;;;1.75;;
34767;SDS011;21755;43.608;1.236;2022-08-24T18:17:06;4.50;;;1.75;;
34767;SDS011;21755;43.608;1.236;2022-08-24T18:19:35;14.00;;;10.88;;
34767;SDS011;21755;43.608;1.236;2022-08-24T18:22:03;12.98;;;9.10;;
34767;SDS011;21755;43.608;1.236;2022-08-24T18:24:30;13.88;;;9.27;;
34767;SDS011;21755;43.608;1.236;2022-08-24T18:27:03;12.50;;;9.82;;
34767;SDS011;21755;43.608;1.236;2022-08-24T18:29:32;5.50;;;2.15;;
34767;SDS011;21755;43.608;1.236;2022-08-24T18:31:59;9.10;;;1.60;;
34767;SDS011;21755;43.608;1.236;2022-08-24T18:34:25;1.65;;;1.30;;
34767;SDS011;21755;43.608;1.236;2022-08-24T18:36:51;5.93;;;1.50;;
34767;SDS011;21755;43.608;1.236;2022-08-24T18:39:18;2.05;;;1.70;;
34767;SDS011;21755;43.608;1.236;2022-08-24T18:41:44;7.22;;;1.60;;
34767;SDS011;21755;43.608;1.236;2022-08-24T18:44:12;2.30;;;1.50;;
34767;SDS011;21755;43.608;1.236;2022-08-24T18:46:45;3.15;;;1.85;;
34767;SDS011;21755;43.608;1.236;2022-08-24T18:49:13;3.38;;;1.42;;
34767;SDS011;21755;43.608;1.236;2022-08-24T18:51:39;6.28;;;1.80;;
34767;SDS011;21755;43.608;1.236;2022-08-24T18:54:08;2.35;;;1.60;;
34767;SDS011;21755;43.608;1.236;2022-08-24T18:56:37;4.88;;;1.50;;
34767;SDS011;21755;43.608;1.236;2022-08-24T18:59:03;4.47;;;1.63;;
34767;SDS011;21755;43.608;1.236;2022-08-24T19:01:30;3.22;;;1.42;;
34767;SDS011;21755;43.608;1.236;2022-08-24T19:04:17;9.45;;;1.80;;
34767;SDS011;21755;43.608;1.236;2022-08-24T19:06:43;4.03;;;1.50;;
34767;SDS011;21755;43.608;1.236;2022-08-24T19:09:09;1.90;;;1.80;;
34767;SDS011;21755;43.608;1.236;2022-08-24T19:11:35;4.32;;;2.00;;
34767;SDS011;21755;43.608;1.236;2022-08-24T19:14:01;1.85;;;1.70;;
34767;SDS011;21755;43.608;1.236;2022-08-24T19:16:27;6.35;;;1.52;;
34767;SDS011;21755;43.608;1.236;2022-08-24T19:18:53;4.25;;;1.60;;
34767;SDS011;21755;43.608;1.236;2022-08-24T19:21:19;6.15;;;1.63;;
34767;SDS011;21755;43.608;1.236;2022-08-24T19:23:45;3.80;;;1.70;;
34767;SDS011;21755;43.608;1.236;2022-08-24T19:26:11;3.53;;;1.60;;
34767;SDS011;21755;43.608;1.236;2022-08-24T19:28:37;3.13;;;1.35;;
34767;SDS011;21755;43.608;1.236;2022-08-24T19:31:06;1.88;;;1.67;;
34767;SDS011;21755;43.608;1.236;2022-08-24T19:33:40;2.03;;;1.30;;